sensor_id;sensor_type;location;lat;lon;timestamp;P1;durP1;ratioP1;P2;durP2;ratioP2
17496;SDS011;62150;43.582;1.456;2023-06-24T05:32:39;8.48;;;4.10;;
17496;SDS011;62150;43.582;1.456;2023-06-24T05:35:07;9.70;;;4.47;;
17496;SDS011;62150;43.582;1.456;2023-06-24T05:37:34;10.07;;;4.25;;
17496;SDS011;62150;43.582;1.456;2023-06-24T05:40:02;9.45;;;4.40;;
17496;SDS011;62150;43.582;1.456;2023-06-24T05:42:31;8.80;;;4.43;;
17496;SDS011;62150;43.582;1.456;2023-06-24T05:44:59;9.43;;;4.38;;
17496;SDS011;62150;43.582;1.456;2023-06-24T05:47:27;10.02;;;4.40;;
17496;SDS011;62150;43.582;1.456;2023-06-24T05:49:56;10.05;;;4.45;;
17496;SDS011;62150;43.582;1.456;2023-06-24T05:52:23;9.50;;;4.43;;
17496;SDS011;62150;43.582;1.456;2023-06-24T05:54:51;9.10;;;4.40;;
17496;SDS011;62150;43.582;1.456;2023-06-24T05:57:18;10.23;;;4.57;;
17496;SDS011;62150;43.582;1.456;2023-06-24T05:59:46;9.02;;;4.35;;
17496;SDS011;62150;43.582;1.456;2023-06-24T06:02:13;9.77;;;4.93;;
17496;SDS011;62150;43.582;1.456;2023-06-24T06:04:41;10.02;;;4.32;;
17496;SDS011;62150;43.582;1.456;2023-06-24T06:07:10;8.90;;;4.40;;
17496;SDS011;62150;43.582;1.456;2023-06-24T06:09:37;9.18;;;4.35;;
17496;SDS011;62150;43.582;1.456;2023-06-24T06:12:05;9.40;;;4.50;;
17496;SDS011;62150;43.582;1.456;2023-06-24T06:14:34;10.13;;;4.72;;
17496;SDS011;62150;43.582;1.456;2023-06-24T06:17:01;8.90;;;4.50;;
17496;SDS011;62150;43.582;1.456;2023-06-24T06:19:29;9.75;;;4.53;;
17496;SDS011;62150;43.582;1.456;2023-06-24T06:21:56;9.48;;;4.55;;
17496;SDS011;62150;43.582;1.456;2023-06-24T06:24:26;9.30;;;4.60;;
17496;SDS011;62150;43.582;1.456;2023-06-24T06:26:54;10.50;;;4.65;;
17496;SDS011;62150;43.582;1.456;2023-06-24T06:29:23;8.80;;;4.35;;
17496;SDS011;62150;43.582;1.456;2023-06-24T06:31:51;8.57;;;4.28;;
17496;SDS011;62150;43.582;1.456;2023-06-24T06:34:20;9.48;;;4.53;;
17496;SDS011;62150;43.582;1.456;2023-06-24T06:36:47;9.43;;;4.30;;
17496;SDS011;62150;43.582;1.456;2023-06-24T06:39:15;9.73;;;4.40;;
17496;SDS011;62150;43.582;1.456;2023-06-24T06:41:44;10.27;;;4.72;;
17496;SDS011;62150;43.582;1.456;2023-06-24T06:44:14;8.95;;;4.47;;
17496;SDS011;62150;43.582;1.456;2023-06-24T06:46:42;9.55;;;4.43;;
17496;SDS011;62150;43.582;1.456;2023-06-24T06:49:09;9.55;;;4.78;;
17496;SDS011;62150;43.582;1.456;2023-06-24T06:51:37;10.13;;;4.50;;
17496;SDS011;62150;43.582;1.456;2023-06-24T06:54:04;9.80;;;4.85;;
17496;SDS011;62150;43.582;1.456;2023-06-24T06:56:32;10.23;;;4.95;;
17496;SDS011;62150;43.582;1.456;2023-06-24T06:59:01;11.65;;;4.78;;
17496;SDS011;62150;43.582;1.456;2023-06-24T07:01:28;10.45;;;4.72;;
17496;SDS011;62150;43.582;1.456;2023-06-24T07:03:55;10.35;;;4.80;;
17496;SDS011;62150;43.582;1.456;2023-06-24T07:06:23;9.75;;;4.60;;
17496;SDS011;62150;43.582;1.456;2023-06-24T07:08:50;10.32;;;4.75;;
17496;SDS011;62150;43.582;1.456;2023-06-24T07:11:18;12.55;;;5.10;;
17496;SDS011;62150;43.582;1.456;2023-06-24T07:13:46;10.35;;;4.55;;
17496;SDS011;62150;43.582;1.456;2023-06-24T07:16:17;9.35;;;4.30;;
17496;SDS011;62150;43.582;1.456;2023-06-24T07:18:44;9.85;;;4.55;;
17496;SDS011;62150;43.582;1.456;2023-06-24T07:21:12;10.20;;;4.75;;
17496;SDS011;62150;43.582;1.456;2023-06-24T07:23:49;10.00;;;4.47;;
17496;SDS011;62150;43.582;1.456;2023-06-24T07:26:17;9.65;;;4.45;;
17496;SDS011;62150;43.582;1.456;2023-06-24T07:28:44;8.20;;;4.32;;
17496;SDS011;62150;43.582;1.456;2023-06-24T07:31:12;9.57;;;4.22;;
17496;SDS011;62150;43.582;1.456;2023-06-24T07:33:41;8.18;;;4.13;;
17496;SDS011;62150;43.582;1.456;2023-06-24T07:36:08;8.88;;;4.00;;
17496;SDS011;62150;43.582;1.456;2023-06-24T07:38:38;8.95;;;4.13;;
17496;SDS011;62150;43.582;1.456;2023-06-24T07:41:06;9.77;;;4.18;;
17496;SDS011;62150;43.582;1.456;2023-06-24T07:43:33;8.80;;;4.40;;
17496;SDS011;62150;43.582;1.456;2023-06-24T07:46:01;8.93;;;4.40;;
17496;SDS011;62150;43.582;1.456;2023-06-24T07:48:29;10.82;;;4.47;;
17496;SDS011;62150;43.582;1.456;2023-06-24T07:50:58;10.18;;;4.75;;
17496;SDS011;62150;43.582;1.456;2023-06-24T07:53:26;9.60;;;4.30;;
17496;SDS011;62150;43.582;1.456;2023-06-24T07:55:53;10.50;;;4.57;;
17496;SDS011;62150;43.582;1.456;2023-06-24T07:58:20;8.75;;;4.00;;
17496;SDS011;62150;43.582;1.456;2023-06-24T08:00:48;9.52;;;4.32;;
17496;SDS011;62150;43.582;1.456;2023-06-24T08:03:16;9.15;;;4.28;;
17496;SDS011;62150;43.582;1.456;2023-06-24T08:05:43;9.27;;;4.22;;
17496;SDS011;62150;43.582;1.456;2023-06-24T08:08:12;8.95;;;4.13;;
17496;SDS011;62150;43.582;1.456;2023-06-24T08:10:39;10.23;;;4.20;;
17496;SDS011;62150;43.582;1.456;2023-06-24T08:13:10;9.75;;;4.43;;
17496;SDS011;62150;43.582;1.456;2023-06-24T08:15:37;10.20;;;4.20;;
17496;SDS011;62150;43.582;1.456;2023-06-24T08:18:05;8.18;;;4.03;;
17496;SDS011;62150;43.582;1.456;2023-06-24T08:20:33;8.95;;;3.90;;
17496;SDS011;62150;43.582;1.456;2023-06-24T08:23:00;8.57;;;4.00;;
17496;SDS011;62150;43.582;1.456;2023-06-24T08:25:29;9.05;;;3.90;;
17496;SDS011;62150;43.582;1.456;2023-06-24T08:27:56;8.75;;;4.38;;
17496;SDS011;62150;43.582;1.456;2023-06-24T08:30:24;9.07;;;4.00;;
17496;SDS011;62150;43.582;1.456;2023-06-24T08:32:52;8.98;;;4.13;;
17496;SDS011;62150;43.582;1.456;2023-06-24T08:35:19;8.35;;;3.60;;
17496;SDS011;62150;43.582;1.456;2023-06-24T08:37:47;8.15;;;3.83;;
17496;SDS011;62150;43.582;1.456;2023-06-24T08:40:14;8.32;;;3.53;;
17496;SDS011;62150;43.582;1.456;2023-06-24T08:42:44;8.48;;;3.65;;
17496;SDS011;62150;43.582;1.456;2023-06-24T08:45:12;7.70;;;3.70;;
17496;SDS011;62150;43.582;1.456;2023-06-24T08:47:39;7.50;;;3.60;;
17496;SDS011;62150;43.582;1.456;2023-06-24T08:50:08;7.40;;;3.58;;
17496;SDS011;62150;43.582;1.456;2023-06-24T08:52:41;8.57;;;3.88;;
17496;SDS011;62150;43.582;1.456;2023-06-24T08:55:12;7.30;;;3.47;;
17496;SDS011;62150;43.582;1.456;2023-06-24T08:57:42;7.97;;;3.60;;
17496;SDS011;62150;43.582;1.456;2023-06-24T09:00:12;8.45;;;3.83;;
17496;SDS011;62150;43.582;1.456;2023-06-24T09:02:40;8.57;;;3.65;;
17496;SDS011;62150;43.582;1.456;2023-06-24T09:05:08;8.43;;;3.90;;
17496;SDS011;62150;43.582;1.456;2023-06-24T09:07:36;6.93;;;3.65;;
17496;SDS011;62150;43.582;1.456;2023-06-24T09:10:04;8.45;;;3.70;;
17496;SDS011;62150;43.582;1.456;2023-06-24T09:12:32;7.65;;;3.55;;
17496;SDS011;62150;43.582;1.456;2023-06-24T09:15:02;7.07;;;3.60;;
17496;SDS011;62150;43.582;1.456;2023-06-24T09:17:30;6.22;;;3.17;;
17496;SDS011;62150;43.582;1.456;2023-06-24T09:20:02;8.32;;;3.88;;
17496;SDS011;62150;43.582;1.456;2023-06-24T09:22:32;8.88;;;3.70;;
17496;SDS011;62150;43.582;1.456;2023-06-24T09:25:00;9.45;;;3.50;;
17496;SDS011;62150;43.582;1.456;2023-06-24T09:27:32;7.90;;;3.60;;
17496;SDS011;62150;43.582;1.456;2023-06-24T09:29:59;7.45;;;3.60;;
17496;SDS011;62150;43.582;1.456;2023-06-24T09:32:42;7.75;;;3.55;;
17496;SDS011;62150;43.582;1.456;2023-06-24T09:35:10;7.30;;;3.70;;
17496;SDS011;62150;43.582;1.456;2023-06-24T09:37:37;9.65;;;3.95;;
17496;SDS011;62150;43.582;1.456;2023-06-24T09:40:06;8.05;;;3.78;;
17496;SDS011;62150;43.582;1.456;2023-06-24T09:42:40;7.43;;;3.60;;
17496;SDS011;62150;43.582;1.456;2023-06-24T09:45:25;8.00;;;3.65;;
17496;SDS011;62150;43.582;1.456;2023-06-24T09:47:53;7.28;;;3.33;;
17496;SDS011;62150;43.582;1.456;2023-06-24T09:50:21;6.60;;;3.70;;
17496;SDS011;62150;43.582;1.456;2023-06-24T09:52:51;8.00;;;3.55;;
17496;SDS011;62150;43.582;1.456;2023-06-24T09:55:21;8.45;;;3.88;;
17496;SDS011;62150;43.582;1.456;2023-06-24T09:57:50;6.50;;;3.42;;
17496;SDS011;62150;43.582;1.456;2023-06-24T10:00:21;8.18;;;4.10;;
17496;SDS011;62150;43.582;1.456;2023-06-24T10:02:51;7.18;;;3.70;;
17496;SDS011;62150;43.582;1.456;2023-06-24T10:05:21;8.82;;;4.03;;
17496;SDS011;62150;43.582;1.456;2023-06-24T10:07:48;7.68;;;3.75;;
17496;SDS011;62150;43.582;1.456;2023-06-24T10:10:16;9.43;;;3.90;;
17496;SDS011;62150;43.582;1.456;2023-06-24T10:12:44;7.35;;;3.72;;
17496;SDS011;62150;43.582;1.456;2023-06-24T10:15:12;7.28;;;3.58;;
17496;SDS011;62150;43.582;1.456;2023-06-24T10:17:40;7.80;;;3.75;;
17496;SDS011;62150;43.582;1.456;2023-06-24T10:20:10;8.52;;;3.90;;
17496;SDS011;62150;43.582;1.456;2023-06-24T10:22:50;8.35;;;3.58;;
17496;SDS011;62150;43.582;1.456;2023-06-24T10:25:18;7.80;;;3.53;;
17496;SDS011;62150;43.582;1.456;2023-06-24T10:27:46;6.85;;;3.30;;
17496;SDS011;62150;43.582;1.456;2023-06-24T10:30:20;7.13;;;3.33;;
17496;SDS011;62150;43.582;1.456;2023-06-24T10:32:52;6.05;;;3.30;;
17496;SDS011;62150;43.582;1.456;2023-06-24T10:35:25;6.70;;;3.45;;
17496;SDS011;62150;43.582;1.456;2023-06-24T10:37:55;6.45;;;3.30;;
17496;SDS011;62150;43.582;1.456;2023-06-24T10:40:34;6.25;;;3.35;;
17496;SDS011;62150;43.582;1.456;2023-06-24T10:43:05;6.82;;;3.55;;
17496;SDS011;62150;43.582;1.456;2023-06-24T10:45:54;8.15;;;3.60;;
17496;SDS011;62150;43.582;1.456;2023-06-24T10:48:24;6.45;;;3.30;;
17496;SDS011;62150;43.582;1.456;2023-06-24T10:50:52;6.10;;;3.17;;
17496;SDS011;62150;43.582;1.456;2023-06-24T10:53:21;6.20;;;3.35;;
17496;SDS011;62150;43.582;1.456;2023-06-24T10:55:49;6.80;;;3.22;;
17496;SDS011;62150;43.582;1.456;2023-06-24T10:58:16;6.47;;;3.45;;
17496;SDS011;62150;43.582;1.456;2023-06-24T11:00:45;6.90;;;3.25;;
17496;SDS011;62150;43.582;1.456;2023-06-24T11:03:13;6.30;;;3.17;;
17496;SDS011;62150;43.582;1.456;2023-06-24T11:05:42;5.40;;;3.00;;
17496;SDS011;62150;43.582;1.456;2023-06-24T11:08:12;6.03;;;3.13;;
17496;SDS011;62150;43.582;1.456;2023-06-24T11:10:43;6.32;;;3.33;;
17496;SDS011;62150;43.582;1.456;2023-06-24T11:13:11;7.15;;;3.53;;
17496;SDS011;62150;43.582;1.456;2023-06-24T11:15:38;6.43;;;3.30;;
17496;SDS011;62150;43.582;1.456;2023-06-24T11:18:07;6.13;;;3.15;;
17496;SDS011;62150;43.582;1.456;2023-06-24T11:20:36;6.35;;;3.20;;
17496;SDS011;62150;43.582;1.456;2023-06-24T11:23:06;6.93;;;3.05;;
17496;SDS011;62150;43.582;1.456;2023-06-24T11:25:39;5.25;;;2.97;;
17496;SDS011;62150;43.582;1.456;2023-06-24T11:28:14;5.90;;;3.10;;
17496;SDS011;62150;43.582;1.456;2023-06-24T11:30:43;6.80;;;3.40;;
17496;SDS011;62150;43.582;1.456;2023-06-24T11:33:11;6.78;;;3.40;;
17496;SDS011;62150;43.582;1.456;2023-06-24T11:35:38;7.10;;;3.28;;
17496;SDS011;62150;43.582;1.456;2023-06-24T11:38:11;6.65;;;3.28;;
17496;SDS011;62150;43.582;1.456;2023-06-24T11:40:40;7.15;;;3.50;;
17496;SDS011;62150;43.582;1.456;2023-06-24T11:43:08;5.60;;;2.95;;
17496;SDS011;62150;43.582;1.456;2023-06-24T11:45:36;6.63;;;3.33;;
17496;SDS011;62150;43.582;1.456;2023-06-24T11:48:03;6.35;;;3.10;;
17496;SDS011;62150;43.582;1.456;2023-06-24T11:50:32;6.05;;;3.10;;
17496;SDS011;62150;43.582;1.456;2023-06-24T11:53:01;6.15;;;3.10;;
17496;SDS011;62150;43.582;1.456;2023-06-24T11:55:30;7.22;;;3.33;;
17496;SDS011;62150;43.582;1.456;2023-06-24T11:58:00;6.63;;;3.10;;
17496;SDS011;62150;43.582;1.456;2023-06-24T12:00:30;5.65;;;3.00;;
17496;SDS011;62150;43.582;1.456;2023-06-24T12:03:00;6.50;;;3.38;;
17496;SDS011;62150;43.582;1.456;2023-06-24T12:05:30;6.32;;;3.20;;
17496;SDS011;62150;43.582;1.456;2023-06-24T12:08:00;5.20;;;3.05;;
17496;SDS011;62150;43.582;1.456;2023-06-24T12:10:28;9.00;;;3.58;;
17496;SDS011;62150;43.582;1.456;2023-06-24T12:13:00;6.78;;;3.30;;
17496;SDS011;62150;43.582;1.456;2023-06-24T12:15:28;6.40;;;3.25;;
17496;SDS011;62150;43.582;1.456;2023-06-24T12:17:56;5.25;;;2.90;;
17496;SDS011;62150;43.582;1.456;2023-06-24T12:20:24;5.40;;;3.17;;
17496;SDS011;62150;43.582;1.456;2023-06-24T12:22:51;6.25;;;3.30;;
17496;SDS011;62150;43.582;1.456;2023-06-24T12:25:19;6.20;;;3.03;;
17496;SDS011;62150;43.582;1.456;2023-06-24T12:27:47;6.45;;;3.33;;
17496;SDS011;62150;43.582;1.456;2023-06-24T12:30:16;6.85;;;3.08;;
17496;SDS011;62150;43.582;1.456;2023-06-24T12:32:45;7.00;;;3.30;;
17496;SDS011;62150;43.582;1.456;2023-06-24T12:35:13;5.53;;;3.03;;
17496;SDS011;62150;43.582;1.456;2023-06-24T12:37:40;5.63;;;3.10;;
17496;SDS011;62150;43.582;1.456;2023-06-24T12:40:10;6.43;;;3.30;;
17496;SDS011;62150;43.582;1.456;2023-06-24T12:42:38;5.47;;;3.22;;
17496;SDS011;62150;43.582;1.456;2023-06-24T12:45:06;6.53;;;3.17;;
17496;SDS011;62150;43.582;1.456;2023-06-24T12:47:36;6.47;;;3.35;;
17496;SDS011;62150;43.582;1.456;2023-06-24T12:50:03;6.15;;;3.17;;
17496;SDS011;62150;43.582;1.456;2023-06-24T12:52:33;6.00;;;2.95;;
17496;SDS011;62150;43.582;1.456;2023-06-24T12:55:01;6.38;;;3.42;;
17496;SDS011;62150;43.582;1.456;2023-06-24T12:57:28;6.63;;;3.47;;
17496;SDS011;62150;43.582;1.456;2023-06-24T12:59:56;5.22;;;3.10;;
17496;SDS011;62150;43.582;1.456;2023-06-24T13:02:23;7.10;;;3.08;;
17496;SDS011;62150;43.582;1.456;2023-06-24T13:04:52;7.25;;;3.40;;
17496;SDS011;62150;43.582;1.456;2023-06-24T13:07:20;6.35;;;3.30;;
17496;SDS011;62150;43.582;1.456;2023-06-24T13:09:47;6.38;;;3.38;;
17496;SDS011;62150;43.582;1.456;2023-06-24T13:12:15;7.18;;;3.35;;
17496;SDS011;62150;43.582;1.456;2023-06-24T13:14:42;6.30;;;3.25;;
17496;SDS011;62150;43.582;1.456;2023-06-24T13:17:10;7.07;;;3.67;;
17496;SDS011;62150;43.582;1.456;2023-06-24T13:19:37;5.75;;;3.33;;
17496;SDS011;62150;43.582;1.456;2023-06-24T13:22:06;7.35;;;3.70;;
17496;SDS011;62150;43.582;1.456;2023-06-24T13:24:34;6.93;;;3.55;;
17496;SDS011;62150;43.582;1.456;2023-06-24T13:27:03;6.80;;;3.40;;
17496;SDS011;62150;43.582;1.456;2023-06-24T13:29:31;7.10;;;3.42;;
17496;SDS011;62150;43.582;1.456;2023-06-24T13:31:59;6.75;;;3.50;;
17496;SDS011;62150;43.582;1.456;2023-06-24T13:34:27;6.97;;;3.50;;
17496;SDS011;62150;43.582;1.456;2023-06-24T13:36:55;5.57;;;3.22;;
17496;SDS011;62150;43.582;1.456;2023-06-24T13:39:24;7.82;;;3.72;;
17496;SDS011;62150;43.582;1.456;2023-06-24T13:41:53;5.90;;;3.40;;
17496;SDS011;62150;43.582;1.456;2023-06-24T13:44:22;8.23;;;3.55;;
17496;SDS011;62150;43.582;1.456;2023-06-24T13:46:49;6.95;;;3.40;;
17496;SDS011;62150;43.582;1.456;2023-06-24T13:49:18;7.07;;;3.50;;
17496;SDS011;62150;43.582;1.456;2023-06-24T13:51:46;7.80;;;3.78;;
17496;SDS011;62150;43.582;1.456;2023-06-24T13:54:13;5.65;;;3.28;;
17496;SDS011;62150;43.582;1.456;2023-06-24T13:56:42;5.60;;;3.30;;
17496;SDS011;62150;43.582;1.456;2023-06-24T13:59:12;6.32;;;3.25;;
17496;SDS011;62150;43.582;1.456;2023-06-24T14:01:39;5.93;;;3.20;;
17496;SDS011;62150;43.582;1.456;2023-06-24T14:04:07;6.63;;;3.38;;
17496;SDS011;62150;43.582;1.456;2023-06-24T14:06:34;6.10;;;3.42;;
17496;SDS011;62150;43.582;1.456;2023-06-24T14:09:02;6.57;;;3.55;;
17496;SDS011;62150;43.582;1.456;2023-06-24T14:11:33;6.72;;;3.45;;
17496;SDS011;62150;43.582;1.456;2023-06-24T14:14:01;6.75;;;3.72;;
17496;SDS011;62150;43.582;1.456;2023-06-24T14:16:29;6.50;;;3.35;;
17496;SDS011;62150;43.582;1.456;2023-06-24T14:18:56;7.28;;;3.50;;
17496;SDS011;62150;43.582;1.456;2023-06-24T14:21:24;7.10;;;3.50;;
17496;SDS011;62150;43.582;1.456;2023-06-24T14:23:51;7.63;;;3.80;;
17496;SDS011;62150;43.582;1.456;2023-06-24T14:26:19;7.25;;;3.60;;
17496;SDS011;62150;43.582;1.456;2023-06-24T14:28:46;6.72;;;3.45;;
17496;SDS011;62150;43.582;1.456;2023-06-24T14:31:15;7.13;;;3.55;;
17496;SDS011;62150;43.582;1.456;2023-06-24T14:33:43;6.22;;;3.50;;
17496;SDS011;62150;43.582;1.456;2023-06-24T14:36:10;6.38;;;3.35;;
17496;SDS011;62150;43.582;1.456;2023-06-24T14:38:38;7.30;;;3.50;;
17496;SDS011;62150;43.582;1.456;2023-06-24T14:41:08;8.05;;;3.47;;
17496;SDS011;62150;43.582;1.456;2023-06-24T14:43:35;7.55;;;3.40;;
17496;SDS011;62150;43.582;1.456;2023-06-24T14:46:04;6.70;;;3.42;;
17496;SDS011;62150;43.582;1.456;2023-06-24T14:48:32;6.72;;;3.22;;
17496;SDS011;62150;43.582;1.456;2023-06-24T14:51:01;6.65;;;3.33;;
17496;SDS011;62150;43.582;1.456;2023-06-24T14:53:28;6.95;;;3.47;;
17496;SDS011;62150;43.582;1.456;2023-06-24T14:55:59;6.80;;;3.40;;
17496;SDS011;62150;43.582;1.456;2023-06-24T14:58:26;6.78;;;3.42;;
17496;SDS011;62150;43.582;1.456;2023-06-24T15:00:54;5.82;;;2.92;;
17496;SDS011;62150;43.582;1.456;2023-06-24T15:03:22;7.90;;;3.22;;
17496;SDS011;62150;43.582;1.456;2023-06-24T15:05:50;6.03;;;3.40;;
17496;SDS011;62150;43.582;1.456;2023-06-24T15:08:18;8.98;;;3.25;;
17496;SDS011;62150;43.582;1.456;2023-06-24T15:10:46;6.47;;;3.30;;
17496;SDS011;62150;43.582;1.456;2023-06-24T15:13:14;6.50;;;3.10;;
17496;SDS011;62150;43.582;1.456;2023-06-24T15:15:41;6.75;;;3.45;;
17496;SDS011;62150;43.582;1.456;2023-06-24T15:18:09;5.78;;;3.17;;
17496;SDS011;62150;43.582;1.456;2023-06-24T15:20:36;5.78;;;3.22;;
17496;SDS011;62150;43.582;1.456;2023-06-24T15:23:05;6.85;;;3.47;;
17496;SDS011;62150;43.582;1.456;2023-06-24T15:25:33;6.25;;;3.42;;
17496;SDS011;62150;43.582;1.456;2023-06-24T15:28:01;6.10;;;3.40;;
17496;SDS011;62150;43.582;1.456;2023-06-24T15:30:29;6.75;;;3.25;;
17496;SDS011;62150;43.582;1.456;2023-06-24T15:32:56;5.63;;;3.28;;
17496;SDS011;62150;43.582;1.456;2023-06-24T15:35:24;6.13;;;3.50;;
17496;SDS011;62150;43.582;1.456;2023-06-24T15:37:51;5.93;;;3.42;;
17496;SDS011;62150;43.582;1.456;2023-06-24T15:40:34;7.28;;;3.30;;
17496;SDS011;62150;43.582;1.456;2023-06-24T15:43:02;6.63;;;3.47;;
17496;SDS011;62150;43.582;1.456;2023-06-24T15:45:30;7.15;;;3.60;;
17496;SDS011;62150;43.582;1.456;2023-06-24T15:47:57;6.57;;;3.33;;
17496;SDS011;62150;43.582;1.456;2023-06-24T15:50:25;8.25;;;3.60;;
17496;SDS011;62150;43.582;1.456;2023-06-24T15:52:52;6.68;;;3.40;;
17496;SDS011;62150;43.582;1.456;2023-06-24T15:55:20;6.30;;;3.22;;
17496;SDS011;62150;43.582;1.456;2023-06-24T15:57:49;6.63;;;3.40;;
17496;SDS011;62150;43.582;1.456;2023-06-24T16:00:17;8.13;;;3.80;;
17496;SDS011;62150;43.582;1.456;2023-06-24T16:02:44;7.30;;;3.67;;
17496;SDS011;62150;43.582;1.456;2023-06-24T16:05:12;7.00;;;3.60;;
17496;SDS011;62150;43.582;1.456;2023-06-24T16:07:39;6.25;;;3.45;;
17496;SDS011;62150;43.582;1.456;2023-06-24T16:10:07;7.20;;;3.45;;
17496;SDS011;62150;43.582;1.456;2023-06-24T16:12:35;7.15;;;3.30;;
17496;SDS011;62150;43.582;1.456;2023-06-24T16:15:05;6.57;;;3.38;;
17496;SDS011;62150;43.582;1.456;2023-06-24T16:17:33;5.90;;;3.25;;
17496;SDS011;62150;43.582;1.456;2023-06-24T16:20:01;7.50;;;3.60;;
17496;SDS011;62150;43.582;1.456;2023-06-24T16:22:31;6.65;;;3.50;;
17496;SDS011;62150;43.582;1.456;2023-06-24T16:24:58;5.95;;;3.42;;
17496;SDS011;62150;43.582;1.456;2023-06-24T16:27:27;6.55;;;3.25;;
17496;SDS011;62150;43.582;1.456;2023-06-24T16:29:55;6.10;;;3.25;;
17496;SDS011;62150;43.582;1.456;2023-06-24T16:32:24;7.38;;;3.63;;
17496;SDS011;62150;43.582;1.456;2023-06-24T16:34:52;7.10;;;3.38;;
17496;SDS011;62150;43.582;1.456;2023-06-24T16:37:21;6.65;;;3.30;;
17496;SDS011;62150;43.582;1.456;2023-06-24T16:39:48;6.68;;;3.30;;
17496;SDS011;62150;43.582;1.456;2023-06-24T16:42:16;6.22;;;3.38;;
17496;SDS011;62150;43.582;1.456;2023-06-24T16:44:44;6.32;;;3.33;;
17496;SDS011;62150;43.582;1.456;2023-06-24T16:47:12;6.65;;;3.38;;
17496;SDS011;62150;43.582;1.456;2023-06-24T16:49:41;7.50;;;3.53;;
17496;SDS011;62150;43.582;1.456;2023-06-24T16:52:13;8.90;;;3.63;;
17496;SDS011;62150;43.582;1.456;2023-06-24T16:54:40;6.40;;;3.40;;
17496;SDS011;62150;43.582;1.456;2023-06-24T16:57:09;7.53;;;3.47;;
17496;SDS011;62150;43.582;1.456;2023-06-24T16:59:39;6.15;;;3.08;;
17496;SDS011;62150;43.582;1.456;2023-06-24T17:02:09;6.72;;;3.50;;
17496;SDS011;62150;43.582;1.456;2023-06-24T17:04:37;6.63;;;3.33;;
17496;SDS011;62150;43.582;1.456;2023-06-24T17:07:06;8.60;;;3.50;;
17496;SDS011;62150;43.582;1.456;2023-06-24T17:09:34;6.63;;;3.47;;
17496;SDS011;62150;43.582;1.456;2023-06-24T17:12:01;7.40;;;3.60;;
17496;SDS011;62150;43.582;1.456;2023-06-24T17:14:29;6.78;;;3.75;;
17496;SDS011;62150;43.582;1.456;2023-06-24T17:16:57;6.18;;;3.55;;
17496;SDS011;62150;43.582;1.456;2023-06-24T17:19:24;8.98;;;3.60;;
17496;SDS011;62150;43.582;1.456;2023-06-24T17:21:51;7.90;;;3.88;;
17496;SDS011;62150;43.582;1.456;2023-06-24T17:24:20;7.18;;;3.53;;
17496;SDS011;62150;43.582;1.456;2023-06-24T17:26:48;6.57;;;3.40;;
17496;SDS011;62150;43.582;1.456;2023-06-24T17:29:15;6.93;;;3.67;;
17496;SDS011;62150;43.582;1.456;2023-06-24T17:31:43;7.30;;;3.72;;
17496;SDS011;62150;43.582;1.456;2023-06-24T17:34:10;7.50;;;3.58;;
17496;SDS011;62150;43.582;1.456;2023-06-24T17:36:38;7.47;;;3.78;;
17496;SDS011;62150;43.582;1.456;2023-06-24T17:39:06;6.18;;;3.33;;
17496;SDS011;62150;43.582;1.456;2023-06-24T17:41:35;6.47;;;3.47;;
17496;SDS011;62150;43.582;1.456;2023-06-24T17:44:03;6.90;;;3.30;;
17496;SDS011;62150;43.582;1.456;2023-06-24T17:46:31;8.15;;;3.65;;
17496;SDS011;62150;43.582;1.456;2023-06-24T17:48:58;7.10;;;3.50;;
17496;SDS011;62150;43.582;1.456;2023-06-24T17:51:25;6.97;;;3.58;;
17496;SDS011;62150;43.582;1.456;2023-06-24T17:53:55;8.00;;;3.63;;
17496;SDS011;62150;43.582;1.456;2023-06-24T17:56:22;7.95;;;3.90;;
17496;SDS011;62150;43.582;1.456;2023-06-24T17:58:52;8.13;;;3.78;;
17496;SDS011;62150;43.582;1.456;2023-06-24T18:01:19;7.70;;;3.53;;
17496;SDS011;62150;43.582;1.456;2023-06-24T18:03:50;8.68;;;3.95;;
17496;SDS011;62150;43.582;1.456;2023-06-24T18:06:18;7.63;;;3.80;;
17496;SDS011;62150;43.582;1.456;2023-06-24T18:08:45;7.55;;;3.53;;
17496;SDS011;62150;43.582;1.456;2023-06-24T18:11:13;10.00;;;3.97;;
17496;SDS011;62150;43.582;1.456;2023-06-24T18:13:40;7.22;;;3.60;;
17496;SDS011;62150;43.582;1.456;2023-06-24T18:16:09;7.95;;;3.63;;
17496;SDS011;62150;43.582;1.456;2023-06-24T18:18:46;7.10;;;3.40;;
17496;SDS011;62150;43.582;1.456;2023-06-24T18:21:14;7.43;;;3.53;;
17496;SDS011;62150;43.582;1.456;2023-06-24T18:23:42;6.82;;;3.53;;
17496;SDS011;62150;43.582;1.456;2023-06-24T18:26:10;7.28;;;3.70;;
17496;SDS011;62150;43.582;1.456;2023-06-24T18:28:39;9.07;;;3.70;;
17496;SDS011;62150;43.582;1.456;2023-06-24T18:31:07;7.07;;;3.70;;
17496;SDS011;62150;43.582;1.456;2023-06-24T18:33:36;8.13;;;3.83;;
17496;SDS011;62150;43.582;1.456;2023-06-24T18:36:03;7.20;;;3.60;;
17496;SDS011;62150;43.582;1.456;2023-06-24T18:38:31;9.98;;;4.00;;
17496;SDS011;62150;43.582;1.456;2023-06-24T18:40:59;6.93;;;3.75;;
17496;SDS011;62150;43.582;1.456;2023-06-24T18:43:26;8.25;;;3.63;;
17496;SDS011;62150;43.582;1.456;2023-06-24T18:45:54;7.03;;;3.50;;
17496;SDS011;62150;43.582;1.456;2023-06-24T18:48:23;7.50;;;3.58;;
17496;SDS011;62150;43.582;1.456;2023-06-24T18:53:31;6.85;;;3.20;;
17496;SDS011;62150;43.582;1.456;2023-06-24T18:55:59;7.50;;;3.67;;
17496;SDS011;62150;43.582;1.456;2023-06-24T18:58:28;6.90;;;3.63;;
17496;SDS011;62150;43.582;1.456;2023-06-24T19:00:55;7.95;;;3.55;;
17496;SDS011;62150;43.582;1.456;2023-06-24T19:03:24;6.80;;;3.70;;
17496;SDS011;62150;43.582;1.456;2023-06-24T19:05:52;8.65;;;3.70;;
17496;SDS011;62150;43.582;1.456;2023-06-24T19:08:20;9.18;;;3.88;;
17496;SDS011;62150;43.582;1.456;2023-06-24T19:10:47;7.20;;;3.75;;
17496;SDS011;62150;43.582;1.456;2023-06-24T19:13:15;8.93;;;3.58;;
17496;SDS011;62150;43.582;1.456;2023-06-24T19:15:42;9.35;;;4.57;;
17496;SDS011;62150;43.582;1.456;2023-06-24T19:18:10;10.15;;;4.80;;
17496;SDS011;62150;43.582;1.456;2023-06-24T19:20:40;8.82;;;4.25;;
17496;SDS011;62150;43.582;1.456;2023-06-24T19:23:09;8.07;;;4.07;;
17496;SDS011;62150;43.582;1.456;2023-06-24T19:25:37;8.70;;;4.18;;
17496;SDS011;62150;43.582;1.456;2023-06-24T19:28:05;8.75;;;4.45;;
17496;SDS011;62150;43.582;1.456;2023-06-24T19:30:32;10.02;;;4.90;;
17496;SDS011;62150;43.582;1.456;2023-06-24T19:33:00;9.40;;;5.00;;
17496;SDS011;62150;43.582;1.456;2023-06-24T19:35:27;9.45;;;4.75;;
17496;SDS011;62150;43.582;1.456;2023-06-24T19:38:04;9.82;;;4.70;;
17496;SDS011;62150;43.582;1.456;2023-06-24T19:40:31;10.77;;;4.82;;
17496;SDS011;62150;43.582;1.456;2023-06-24T19:42:59;10.32;;;4.95;;
17496;SDS011;62150;43.582;1.456;2023-06-24T19:45:26;10.38;;;4.70;;
17496;SDS011;62150;43.582;1.456;2023-06-24T19:47:54;10.27;;;4.90;;
17496;SDS011;62150;43.582;1.456;2023-06-24T19:50:21;10.43;;;4.90;;
17496;SDS011;62150;43.582;1.456;2023-06-24T19:52:49;9.43;;;4.60;;
17496;SDS011;62150;43.582;1.456;2023-06-24T19:55:18;10.02;;;5.20;;
17496;SDS011;62150;43.582;1.456;2023-06-24T19:57:48;10.45;;;5.25;;
17496;SDS011;62150;43.582;1.456;2023-06-24T20:00:16;12.07;;;5.00;;
17496;SDS011;62150;43.582;1.456;2023-06-24T20:02:44;10.88;;;5.28;;
17496;SDS011;62150;43.582;1.456;2023-06-24T20:05:12;9.82;;;5.10;;
17496;SDS011;62150;43.582;1.456;2023-06-24T20:07:40;10.70;;;5.90;;
17496;SDS011;62150;43.582;1.456;2023-06-24T20:10:08;11.40;;;5.65;;
17496;SDS011;62150;43.582;1.456;2023-06-24T20:12:37;10.80;;;5.95;;
17496;SDS011;62150;43.582;1.456;2023-06-24T20:15:05;11.00;;;5.57;;
17496;SDS011;62150;43.582;1.456;2023-06-24T20:17:33;10.43;;;5.90;;
17496;SDS011;62150;43.582;1.456;2023-06-24T20:20:00;11.15;;;5.60;;
17496;SDS011;62150;43.582;1.456;2023-06-24T20:22:28;10.93;;;5.35;;
17496;SDS011;62150;43.582;1.456;2023-06-24T20:24:55;10.10;;;5.45;;
17496;SDS011;62150;43.582;1.456;2023-06-24T20:27:23;11.40;;;5.85;;